Flight Track Log - Related Links

Times and Time Zones

All times are in EDT time to prevent confusion due to time zone crossing. See the SKW5578 flight status page for this flight to view local times or setup timezone preferences in your user account.

Time Position Orientation Groundspeed Altitude Reporting Facility
EDT Latitude Longitude Course Direction KTS MPH feet Rate Location/Type
Sun 11:41:35 AM 33.9500 -118.4333 265° West 161 185 1,000  Level Southern TRACON
Sun 11:43:57 AM 33.9344 -118.6300 315° West 276 318 5,800 2,198 Climbing Los Center
Sun 11:44:57 AM 33.9833 -118.6889 350° North 297 342 8,400 1,550 Climbing Los Center
Sun 11:45:57 AM 34.0561 -118.7036 32° Northeast 304 350 8,900 300 Climbing Los Center
Sun 11:46:57 AM 34.1239 -118.6531 10° North 292 336 9,000 1,050 Climbing Los Center
Sun 11:47:57 AM 34.2036 -118.6356 348° North 310 357 11,000 2,250 Climbing Los Center
Sun 11:48:57 AM 34.2908 -118.6581 347° North 291 335 13,500 2,150 Climbing Los Center
Sun 11:49:57 AM 34.3781 -118.6833 352° North 299 344 15,300 1,950 Climbing Los Center
Sun 11:50:57 AM 34.4694 -118.6989 11° North 317 365 17,400 1,900 Climbing Los Center
Sun 11:51:57 AM 34.5639 -118.6764 11° North 324 373 19,100 1,650 Climbing Los Center
Sun 11:52:57 AM 34.6583 -118.6542 12° North 336 387 20,700 1,400 Climbing Los Center
Sun 11:53:57 AM 34.7483 -118.6317 11° North 349 402 21,900 1,400 Climbing Los Center
Sun 11:54:57 AM 34.8533 -118.6069 15° North 361 415 23,500 1,450 Climbing Los Center
Sun 11:55:57 AM 34.9689 -118.5700 12° North 375 432 24,800 750 Climbing Los Center
Sun 11:56:57 AM 35.0778 -118.5425 11° North 381 438 25,000 100 Climbing Los Center
Sun 11:57:57 AM 35.1953 -118.5156 11° North 401 461 25,000  Level Los Center
Sun 11:58:57 AM 35.2811 -118.4953 11° North 407 468 25,000  Level Los Center
Sun 11:59:57 AM 35.4194 -118.4636 11° North 413 475 25,000  Level Los Center
Sun 12:00:57 PM 35.5286 -118.4386 13° North 408 470 25,000  Level Los Center
Sun 12:01:57 PM 35.6356 -118.4083 12° North 397 457 25,000  Level Los Center
Sun 12:02:57 PM 35.7444 -118.3808 11° North 392 451 25,000  Level Los Center
Sun 12:03:57 PM 35.8514 -118.3556 12° North 392 451 25,000  Level Los Center
Sun 12:04:57 PM 35.9561 -118.3278 12° North 392 451 25,000  Level Los Center
Sun 12:05:57 PM 36.0631 -118.3000 11° North 392 451 25,000  Level Los Center
Sun 12:06:57 PM 36.1678 -118.2744 12° North 392 451 25,000  Level Los Center
Sun 12:07:57 PM 36.2747 -118.2464 13° North 392 451 25,000  Level Los Center
Sun 12:08:57 PM 36.3794 -118.2156 11° North 392 451 25,000  Level Los Center
Sun 12:09:57 PM 36.4864 -118.1900 11° North 392 451 25,000  Level Los Center
Sun 12:10:57 PM 36.5911 -118.1642 12° North 392 451 25,000  Level Los Center
Sun 12:11:57 PM 36.6958 -118.1358 North 392 451 25,000  Level Los Center
Sun 12:12:57 PM 36.7922 -118.1178 12° North 392 451 25,000  Level Los Center
Sun 12:14:33 PM 36.9572 -118.0731 11° North 398 458 25,000  Level Oakland Center
Sun 12:15:33 PM 37.0631 -118.0481 12° North 383 441 25,000  Level Oakland Center
Sun 12:16:33 PM 37.1686 -118.0206 12° North 383 441 25,000  Level Oakland Center
Sun 12:17:33 PM 37.2806 -117.9900 12° North 373 429 25,000  Level Oakland Center
Sun 12:18:33 PM 37.3842 -117.9622 12° North 373 429 25,000  Level Oakland Center
Sun 12:19:34 PM 37.4897 -117.9344 12° North 373 429 25,000  Level Oakland Center
Sun 12:20:33 PM 37.5933 -117.9067 12° North 373 429 25,000  Level Oakland Center
Sun 12:21:33 PM 37.6950 -117.8789 11° North 373 429 25,000  Level Oakland Center
Sun 12:22:33 PM 37.8006 -117.8533 11° North 373 429 25,000  Level Oakland Center
Sun 12:23:33 PM 37.9022 -117.8281 13° North 373 429 25,000  Level Oakland Center
Sun 12:24:33 PM 38.0036 -117.7975 11° North 373 429 25,000  Level Oakland Center
Sun 12:25:33 PM 38.1031 -117.7719 12° North 373 429 25,000  Level Oakland Center
Sun 12:26:33 PM 38.2025 -117.7439 13° North 373 429 25,000  Level Oakland Center
Sun 12:27:33 PM 38.3017 -117.7156 12° North 368 423 25,000  Level Oakland Center
Sun 12:28:33 PM 38.3992 -117.6900 11° North 368 423 25,000  Level Oakland Center
Sun 12:29:33 PM 38.4983 -117.6644 13° North 368 423 25,000  Level Oakland Center
Sun 12:30:04 PM 38.5414 -117.6522 12° North 362 417 25,000  Level Salt Center
Sun 12:31:06 PM 38.6400 -117.6250 12° North 361 415 25,000  Level Salt Center
Sun 12:32:07 PM 38.7378 -117.5986 12° North 359 413 25,000  Level Salt Center
Sun 12:33:09 PM 38.8350 -117.5725 12° North 356 410 25,000  Level Salt Center
Sun 12:34:11 PM 38.9325 -117.5464 12° North 356 410 25,000  Level Salt Center
Sun 12:35:13 PM 39.0403 -117.5167 12° North 352 405 25,000  Level Salt Center
Sun 12:36:15 PM 39.1358 -117.4906 12° North 352 405 25,000  Level Salt Center
Sun 12:37:16 PM 39.2317 -117.4642 12° North 352 405 25,000  Level Salt Center
Sun 12:38:18 PM 39.3383 -117.4342 12° North 351 404 25,000  Level Salt Center
Sun 12:39:20 PM 39.4297 -117.4092 12° North 350 403 25,000  Level Salt Center
Sun 12:40:22 PM 39.5372 -117.3803 12° North 351 404 25,000  Level Salt Center
Sun 12:41:23 PM 39.6297 -117.3547 13° North 353 406 25,000  Level Salt Center
Sun 12:42:25 PM 39.7214 -117.3281 12° North 353 406 25,000  Level Salt Center
Sun 12:43:27 PM 39.8300 -117.2981 12° North 355 409 25,000  Level Salt Center
Sun 12:44:29 PM 39.9225 -117.2719 12° North 354 407 25,000  Level Salt Center
Sun 12:45:30 PM 40.0303 -117.2419 12° North 354 407 25,000  Level Salt Center
Sun 12:46:32 PM 40.1225 -117.2164 12° North 353 406 25,000  Level Salt Center
Sun 12:47:34 PM 40.2306 -117.1861 12° North 353 406 25,000  Level Salt Center
Sun 12:48:36 PM 40.3233 -117.1597 12° North 354 407 25,000  Level Salt Center
Sun 12:49:37 PM 40.4175 -117.1339 13° North 354 407 25,000  Level Salt Center
Sun 12:50:39 PM 40.5258 -117.1014 12° North 353 406 25,000  Level Salt Center
Sun 12:51:41 PM 40.6175 -117.0747 12° North 350 403 25,000  Level Salt Center
Sun 12:52:43 PM 40.7097 -117.0494 12° North 350 403 25,000  Level Salt Center
Sun 12:53:44 PM 40.8183 -117.0192 13° North 353 406 25,000  Level Salt Center
Sun 12:54:46 PM 40.9092 -116.9925 12° North 351 404 25,000  Level Salt Center
Sun 12:55:48 PM 41.0136 -116.9628 12° North 346 398 25,000  Level Salt Center
Sun 12:56:50 PM 41.1036 -116.9367 12° North 345 397 25,000  Level Salt Center
Sun 12:57:51 PM 41.2078 -116.9061 12° North 343 395 25,000  Level Salt Center
Sun 12:58:53 PM 41.2967 -116.8803 13° North 341 392 25,000  Level Salt Center
Sun 12:59:55 PM 41.3858 -116.8536 12° North 342 394 25,000  Level Salt Center
Sun 01:00:57 PM 41.4892 -116.8244 12° North 339 390 25,000  Level Salt Center
Sun 01:01:58 PM 41.5781 -116.7983 13° North 340 391 25,000  Level Salt Center
Sun 01:03:00 PM 41.6817 -116.7675 14° North 341 392 25,000  Level Salt Center
Sun 01:04:02 PM 41.7697 -116.7386 13° North 341 392 25,000  Level Salt Center
Sun 01:05:04 PM 41.8736 -116.7061 13° North 341 392 25,000  Level Salt Center
Sun 01:06:05 PM 41.9608 -116.6792 13° North 337 388 25,000  Level Salt Center
Sun 01:07:07 PM 42.0581 -116.6500 13° North 336 387 25,000  Level Salt Center
Sun 01:08:09 PM 42.1458 -116.6231 13° North 337 388 25,000  Level Salt Center
Sun 01:09:10 PM 42.2483 -116.5919 13° North 337 388 25,000  Level Salt Center
Sun 01:10:12 PM 42.3358 -116.5653 12° North 336 387 25,000  Level Salt Center
Sun 01:11:14 PM 42.4378 -116.5350 12° North 336 387 25,000  Level Salt Center
Sun 01:12:15 PM 42.5244 -116.5094 North 334 384 25,000  Level Salt Center
Sun 01:13:17 PM 42.6139 -116.5014 North 332 382 25,000 -1,016 Level Salt Center
Sun 01:14:19 PM 42.7178 -116.4864 North 335 386 22,900 -2,634 Descending Salt Center
Sun 01:15:20 PM 42.8178 -116.4703 North 342 394 19,600 -2,927 Descending Salt Center
Sun 01:16:22 PM 42.9197 -116.4547 North 348 400 16,900 -2,710 Descending Salt Center
Sun 01:17:24 PM 43.0139 -116.4456 10° North 351 404 14,000 -2,784 Descending Salt Center
Sun 01:18:27 PM 43.1094 -116.4233 22° Northeast 332 382 11,100 -1,902 Descending Salt Center
Sun 01:19:27 PM 43.1892 -116.3794 20° North 288 331 10,100 -1,230 Descending Salt Center
Sun 01:20:29 PM 43.2639 -116.3414 40° Northeast 274 315 8,600 -1,452 Descending Salt Center
Sun 01:21:31 PM 43.3203 -116.2764 38° Northeast 270 311 7,100 -1,016 Descending Salt Center
Sun 01:22:33 PM 43.3797 -116.2117 33° Northeast 262 302 6,500 -732 Descending Salt Center
Sun 01:23:34 PM 43.4394 -116.1572 32° Northeast 247 284 5,600 -732 Descending Salt Center
Sun 01:24:36 PM 43.4886 -116.1150 355° North 199 229 5,000 -726 Descending Salt Center
Sun 01:25:38 PM 43.5294 -116.1197 297° West 168 193 4,100 -629 Descending Salt Center
Sun 01:26:40 PM 43.5492 -116.1736 297° West 150 173 3,700 -387 Descending Salt Center

Login

Don't have an account? Register now (free) for customized features, flight alerts, and more!